createdAt,value
2022-11-03T05:02:14.433Z,5.80
2022-11-03T05:04:43.008Z,5.70
2022-11-03T05:07:29.837Z,5.70
2022-11-03T05:09:58.129Z,5.70
2022-11-03T05:12:27.138Z,5.70
2022-11-03T05:14:58.249Z,5.70
2022-11-03T05:17:30.091Z,5.70
2022-11-03T05:20:02.915Z,5.70
2022-11-03T05:22:36.654Z,5.70
2022-11-03T05:25:33.191Z,5.70
2022-11-03T05:28:01.232Z,5.70
2022-11-03T05:30:29.463Z,5.70
2022-11-03T05:32:59.686Z,5.70
2022-11-03T05:35:27.617Z,5.60
2022-11-03T05:37:55.617Z,5.60
2022-11-03T05:40:27.008Z,5.60
2022-11-03T05:43:00.047Z,5.60
2022-11-03T05:45:34.084Z,5.60
2022-11-03T05:48:14.658Z,5.60
2022-11-03T05:50:43.510Z,5.70
2022-11-03T05:53:28.226Z,5.70
2022-11-03T05:56:00.843Z,5.70
2022-11-03T05:58:33.307Z,5.70
2022-11-03T06:01:05.558Z,5.70
2022-11-03T06:03:37.612Z,5.70
2022-11-03T06:06:16.707Z,5.80
2022-11-03T06:08:46.261Z,5.80
2022-11-03T06:11:25.690Z,5.80
2022-11-03T06:13:54.068Z,5.80
2022-11-03T06:16:42.462Z,5.80
2022-11-03T06:19:29.819Z,5.80
2022-11-03T06:22:03.598Z,5.80
2022-11-03T06:24:35.580Z,5.90
2022-11-03T06:27:03.823Z,5.90
2022-11-03T06:29:34.711Z,5.90
2022-11-03T06:32:03.259Z,5.90
2022-11-03T06:34:46.145Z,5.90
2022-11-03T06:37:23.720Z,6.00
2022-11-03T06:39:58.867Z,6.00
2022-11-03T06:42:32.602Z,6.00
2022-11-03T06:45:11.254Z,6.00
2022-11-03T06:47:42.178Z,6.10
2022-11-03T06:50:25.563Z,6.10
2022-11-03T06:52:55.412Z,6.10
2022-11-03T06:55:27.272Z,6.20
2022-11-03T06:58:00.443Z,6.20
2022-11-03T07:00:40.116Z,6.20
2022-11-03T07:03:17.017Z,6.20
2022-11-03T07:05:46.650Z,6.20
2022-11-03T07:08:25.787Z,6.20
2022-11-03T07:11:04.841Z,6.30
2022-11-03T07:13:35.454Z,6.30
2022-11-03T07:16:03.977Z,6.40
2022-11-03T07:18:39.761Z,6.50
2022-11-03T07:21:31.843Z,6.50
2022-11-03T07:24:04.019Z,6.30
2022-11-03T07:26:34.699Z,6.40
2022-11-03T07:29:03.429Z,6.50
2022-11-03T07:31:33.012Z,6.70
2022-11-03T07:34:01.034Z,6.90
2022-11-03T07:36:32.991Z,7.00
2022-11-03T07:39:03.879Z,7.20
2022-11-03T07:41:34.893Z,7.30
2022-11-03T07:44:04.279Z,7.40
2022-11-03T07:46:32.245Z,7.50
2022-11-03T07:49:02.656Z,7.60
2022-11-03T07:51:34.862Z,7.80
2022-11-03T07:54:14.970Z,7.90
2022-11-03T07:56:47.461Z,8.00
2022-11-03T07:59:21.162Z,8.20
2022-11-03T08:01:51.750Z,8.30
2022-11-03T08:04:24.059Z,8.40
2022-11-03T08:06:53.553Z,8.60
2022-11-03T08:09:22.125Z,8.70
2022-11-03T08:11:50.382Z,8.80
2022-11-03T08:14:19.032Z,8.80
2022-11-03T08:16:47.011Z,8.90
2022-11-03T08:19:15.003Z,8.90
2022-11-03T08:21:42.968Z,9.00
2022-11-03T08:24:12.322Z,9.00
2022-11-03T08:26:40.323Z,9.00
2022-11-03T08:29:08.297Z,9.10
2022-11-03T08:31:36.277Z,9.20
2022-11-03T08:34:04.434Z,9.30
2022-11-03T08:36:32.503Z,9.30
2022-11-03T08:39:00.569Z,9.40
2022-11-03T08:41:29.922Z,9.40
2022-11-03T08:43:58.122Z,9.50
2022-11-03T08:46:26.188Z,9.60
2022-11-03T08:48:54.247Z,9.70
2022-11-03T08:51:22.307Z,9.90
2022-11-03T08:53:53.808Z,10.00
2022-11-03T08:56:34.609Z,10.20
2022-11-03T08:59:04.199Z,10.30
2022-11-03T09:01:32.317Z,10.40
2022-11-03T09:04:00.554Z,10.60
2022-11-03T09:06:28.636Z,10.70
2022-11-03T09:11:44.700Z,10.90
2022-11-03T09:14:14.051Z,11.00
2022-11-03T09:16:42.012Z,11.20
2022-11-03T09:19:10.031Z,11.20
2022-11-03T09:21:38.075Z,11.20
2022-11-03T09:24:07.371Z,11.30
2022-11-03T09:26:35.502Z,11.40
2022-11-03T09:29:03.549Z,11.50
2022-11-03T09:31:32.878Z,11.70
2022-11-03T09:34:00.940Z,12.00
2022-11-03T09:36:28.933Z,12.00
2022-11-03T09:38:56.937Z,12.10
2022-11-03T09:41:27.714Z,12.30
2022-11-03T09:44:03.710Z,12.40
2022-11-03T09:46:35.172Z,12.50
2022-11-03T09:49:05.266Z,12.80
2022-11-03T09:51:36.340Z,13.00
2022-11-03T09:54:06.852Z,12.90
2022-11-03T09:56:38.087Z,13.10
2022-11-03T09:59:16.658Z,13.30
2022-11-03T10:01:49.929Z,13.50
2022-11-03T10:04:22.439Z,13.80
2022-11-03T10:06:50.504Z,13.90
2022-11-03T10:09:20.633Z,14.10
2022-11-03T10:11:49.301Z,14.30
2022-11-03T10:14:20.041Z,14.70
2022-11-03T10:16:56.836Z,15.00
2022-11-03T10:19:25.711Z,15.20
2022-11-03T10:21:53.965Z,15.20
2022-11-03T10:24:22.083Z,15.40
2022-11-03T10:26:52.457Z,15.50
2022-11-03T10:29:23.154Z,15.80
2022-11-03T10:31:55.515Z,15.90
2022-11-03T10:34:34.004Z,16.10
2022-11-03T10:37:23.576Z,16.10
2022-11-03T10:39:53.485Z,16.10
2022-11-03T10:42:24.520Z,16.20
2022-11-03T10:44:55.965Z,16.00
2022-11-03T10:47:33.686Z,15.90
2022-11-03T10:50:19.965Z,16.00
2022-11-03T10:52:48.245Z,16.10
2022-11-03T10:55:22.077Z,15.90
2022-11-03T10:57:55.912Z,15.70
2022-11-03T11:00:25.045Z,15.70
2022-11-03T11:03:01.715Z,15.50
2022-11-03T11:05:29.937Z,15.40
2022-11-03T11:08:00.505Z,15.20
2022-11-03T11:10:31.249Z,15.00
2022-11-03T11:13:25.645Z,14.80
2022-11-03T11:15:55.754Z,14.80
2022-11-03T11:19:03.261Z,14.90
2022-11-03T11:22:01.465Z,14.90
2022-11-03T11:25:03.260Z,14.70
2022-11-03T11:28:18.847Z,14.60
2022-11-03T11:31:59.618Z,14.60
2022-11-03T11:34:41.721Z,14.50
2022-11-03T11:37:36.649Z,14.40
2022-11-03T11:40:14.636Z,14.40
2022-11-03T11:43:26.002Z,14.40
2022-11-03T11:46:34.721Z,14.40
2022-11-03T11:49:18.258Z,14.40
2022-11-03T11:51:48.327Z,14.40
2022-11-03T11:54:21.861Z,14.40
2022-11-03T11:56:51.118Z,14.50
2022-11-03T11:59:25.737Z,14.40
2022-11-03T12:01:57.614Z,14.40
2022-11-03T12:04:30.980Z,14.40
2022-11-03T12:07:00.418Z,14.40
2022-11-03T12:09:29.441Z,14.50
2022-11-03T12:12:04.990Z,14.50
2022-11-03T12:14:38.063Z,14.50
2022-11-03T12:17:35.167Z,14.40
2022-11-03T12:20:36.586Z,14.40
2022-11-03T12:23:05.929Z,14.50
2022-11-03T12:25:37.276Z,14.60
2022-11-03T12:28:05.808Z,14.60
2022-11-03T12:30:39.431Z,14.70
2022-11-03T12:33:08.247Z,14.90
2022-11-03T12:35:36.631Z,14.90
2022-11-03T12:38:05.925Z,14.90
2022-11-03T12:40:33.909Z,14.90
2022-11-03T12:43:01.936Z,14.90
2022-11-03T12:45:29.866Z,14.90
2022-11-03T12:47:57.889Z,15.00
2022-11-03T12:50:26.070Z,15.00
2022-11-03T12:52:54.130Z,15.00
2022-11-03T12:55:23.595Z,15.00
2022-11-03T12:57:51.742Z,15.10
2022-11-03T13:00:19.964Z,15.20
2022-11-03T13:02:48.198Z,15.30
2022-11-03T13:05:16.679Z,15.40
2022-11-03T13:07:44.728Z,15.50
2022-11-03T13:10:12.763Z,15.60
2022-11-03T13:12:44.674Z,15.50
2022-11-03T13:15:15.735Z,15.40
2022-11-03T13:18:12.768Z,15.40
2022-11-03T13:20:32.430Z,15.40
2022-11-03T13:23:00.420Z,15.40
2022-11-03T13:25:28.902Z,15.80
2022-11-03T13:27:58.925Z,16.20
2022-11-03T13:30:28.476Z,16.50
2022-11-03T13:32:57.172Z,16.80
2022-11-03T13:35:25.181Z,17.10
2022-11-03T13:37:53.220Z,17.50
2022-11-03T13:43:11.685Z,18.20
2022-11-03T13:45:40.048Z,18.60
2022-11-03T13:50:56.785Z,19.90
2022-11-03T13:56:19.186Z,20.60
2022-11-03T14:01:40.733Z,20.30
2022-11-03T14:06:58.462Z,19.60
2022-11-03T14:09:26.775Z,19.30
2022-11-03T14:12:19.720Z,19.00
2022-11-03T14:14:49.265Z,18.90
2022-11-03T14:17:17.256Z,18.90
2022-11-03T14:19:51.785Z,19.30
2022-11-03T14:22:20.892Z,19.60
2022-11-03T14:24:50.432Z,19.90
2022-11-03T14:27:20.443Z,19.70
2022-11-03T14:29:50.503Z,19.50
2022-11-03T14:32:20.449Z,19.00
2022-11-03T14:34:48.802Z,18.60
2022-11-03T14:37:17.312Z,18.10
2022-11-03T14:39:45.477Z,17.80
2022-11-03T14:42:15.837Z,17.50
2022-11-03T14:44:46.520Z,17.10
2022-11-03T14:47:18.637Z,16.90
2022-11-03T14:49:47.093Z,16.70
2022-11-03T14:52:16.740Z,16.40
2022-11-03T14:54:45.191Z,16.20
2022-11-03T14:57:13.196Z,15.80
2022-11-03T14:59:41.684Z,15.60
2022-11-03T15:02:09.874Z,15.40
2022-11-03T15:04:39.301Z,15.10
2022-11-03T15:07:07.332Z,14.90
2022-11-03T15:09:35.361Z,14.80
2022-11-03T15:12:03.410Z,14.60
2022-11-03T15:14:31.412Z,14.40
2022-11-03T15:16:59.445Z,14.20
2022-11-03T15:19:27.458Z,14.00
2022-11-03T15:21:56.784Z,13.90
2022-11-03T15:27:13.599Z,13.70
2022-11-03T15:29:41.573Z,13.60
2022-11-03T15:32:09.559Z,13.40
2022-11-03T15:34:37.564Z,13.30
2022-11-03T15:37:06.839Z,13.20
2022-11-03T15:39:34.824Z,13.00
2022-11-03T15:42:02.861Z,12.90
2022-11-03T15:44:30.941Z,12.70
2022-11-03T15:46:58.941Z,12.70
2022-11-03T15:49:27.071Z,12.60
2022-11-03T15:51:55.026Z,12.50
2022-11-03T15:54:24.325Z,12.50
2022-11-03T15:56:52.307Z,12.40
2022-11-03T15:59:20.295Z,12.30
2022-11-03T16:01:48.392Z,12.30
2022-11-03T16:04:17.171Z,12.20
2022-11-03T16:09:34.709Z,12.10
2022-11-03T16:12:03.118Z,12.10
2022-11-03T16:14:31.346Z,12.10
2022-11-03T16:16:59.647Z,12.00
2022-11-03T16:19:27.690Z,12.00
2022-11-03T16:21:55.620Z,12.00
2022-11-03T16:24:29.584Z,12.00
2022-11-03T16:27:05.002Z,12.00
2022-11-03T16:29:33.066Z,12.00
2022-11-03T16:32:01.043Z,12.00
2022-11-03T16:34:29.044Z,12.00
2022-11-03T16:36:57.200Z,11.90
2022-11-03T16:39:25.149Z,11.90
2022-11-03T16:41:54.735Z,11.90
2022-11-03T16:44:24.138Z,11.90
2022-11-03T16:46:52.035Z,11.80
2022-11-03T16:49:20.045Z,11.80
2022-11-03T16:51:48.058Z,11.80
2022-11-03T16:54:16.224Z,11.80
2022-11-03T16:56:44.841Z,11.80
2022-11-03T16:59:12.891Z,11.70
2022-11-03T17:01:43.251Z,11.70
2022-11-03T17:04:11.278Z,11.70
2022-11-03T17:06:39.235Z,11.70
2022-11-03T17:09:07.238Z,11.60
2022-11-03T17:11:37.917Z,11.60
2022-11-03T17:14:07.770Z,11.60
2022-11-03T17:16:36.147Z,11.60
2022-11-03T17:19:05.488Z,11.60
2022-11-03T17:21:33.561Z,11.60
2022-11-03T17:24:01.809Z,11.60
2022-11-03T17:26:42.866Z,11.60
2022-11-03T17:29:18.640Z,11.70
2022-11-03T17:31:46.850Z,11.70
2022-11-03T17:34:25.775Z,11.70
2022-11-03T17:36:54.833Z,11.80
2022-11-03T17:39:29.164Z,11.80
2022-11-03T17:44:41.096Z,11.80
2022-11-03T17:47:09.097Z,11.80
2022-11-03T17:49:38.447Z,11.80
2022-11-03T17:52:07.367Z,11.90
2022-11-03T17:54:35.501Z,11.90
2022-11-03T17:57:05.004Z,11.90
2022-11-03T17:59:34.404Z,12.00
2022-11-03T18:02:04.031Z,12.00
2022-11-03T18:04:32.501Z,12.00
2022-11-03T18:07:01.921Z,12.00
2022-11-03T18:09:29.903Z,12.00
2022-11-03T18:12:15.357Z,12.00
2022-11-03T18:14:43.384Z,12.00
2022-11-03T18:17:11.476Z,12.00
2022-11-03T18:19:40.000Z,12.00
2022-11-03T18:22:12.662Z,12.00
2022-11-03T18:24:40.678Z,12.00
2022-11-03T18:27:14.943Z,12.00
2022-11-03T18:29:42.958Z,12.10
2022-11-03T18:32:18.399Z,12.00
2022-11-03T18:34:46.651Z,12.10
2022-11-03T18:37:16.027Z,12.10
2022-11-03T18:39:44.064Z,12.10
2022-11-03T18:42:16.298Z,12.00
2022-11-03T18:44:44.654Z,12.10
2022-11-03T18:47:12.711Z,12.00
2022-11-03T18:49:40.854Z,12.10
2022-11-03T18:52:16.175Z,12.10
2022-11-03T18:54:50.195Z,12.10
2022-11-03T18:57:23.382Z,12.10
2022-11-03T18:59:52.246Z,12.10
2022-11-03T19:02:22.615Z,12.10
2022-11-03T19:04:51.077Z,12.10
2022-11-03T19:07:26.584Z,12.10
2022-11-03T19:09:54.619Z,12.10
2022-11-03T19:12:22.970Z,12.10
2022-11-03T19:14:51.931Z,12.10
2022-11-03T19:17:24.586Z,12.00
2022-11-03T19:19:53.592Z,12.00
2022-11-03T19:22:24.348Z,12.00
2022-11-03T19:24:52.416Z,12.00
2022-11-03T19:27:26.335Z,12.00
2022-11-03T19:29:56.802Z,12.00
2022-11-03T19:32:29.582Z,12.00
2022-11-03T19:35:03.004Z,11.90
2022-11-03T19:37:36.039Z,11.90
2022-11-03T19:40:05.938Z,11.90
2022-11-03T19:42:36.500Z,11.80
2022-11-03T19:45:08.332Z,11.80
2022-11-03T19:47:57.604Z,11.70
2022-11-03T19:50:35.346Z,11.70
2022-11-03T19:53:07.752Z,11.70
2022-11-03T19:55:40.012Z,11.60
2022-11-03T19:58:15.474Z,11.60
2022-11-03T20:00:44.051Z,11.60
2022-11-03T20:03:12.308Z,11.50
2022-11-03T20:05:46.404Z,11.50
2022-11-03T20:08:22.487Z,11.50
2022-11-03T20:10:51.701Z,11.50
2022-11-03T20:13:22.766Z,11.40
2022-11-03T20:15:57.366Z,11.50
2022-11-03T20:18:25.491Z,11.40
2022-11-03T20:20:55.696Z,11.50
2022-11-03T20:23:30.604Z,11.40
2022-11-03T20:25:59.575Z,11.40
2022-11-03T20:28:33.685Z,11.40
2022-11-03T20:31:03.718Z,11.40
2022-11-03T20:33:32.487Z,11.30
2022-11-03T20:36:01.276Z,11.30
2022-11-03T20:38:31.599Z,11.20
2022-11-03T20:41:07.299Z,11.20
2022-11-03T20:43:43.135Z,11.20
2022-11-03T20:46:23.211Z,11.10
2022-11-03T20:48:51.862Z,11.10
2022-11-03T20:51:26.926Z,11.10
2022-11-03T20:53:56.759Z,10.90
2022-11-03T20:56:27.530Z,11.00
2022-11-03T20:58:56.816Z,11.00
2022-11-03T21:01:32.985Z,10.80
2022-11-03T21:04:03.121Z,11.00
2022-11-03T21:06:33.873Z,10.70
2022-11-03T21:09:04.099Z,10.70
2022-11-03T21:11:39.764Z,10.80
2022-11-03T21:14:15.897Z,10.70
2022-11-03T21:17:01.630Z,10.70
2022-11-03T21:19:51.176Z,10.60
2022-11-03T21:22:50.368Z,10.60
2022-11-03T21:25:16.592Z,10.60
2022-11-03T21:27:45.569Z,10.40
2022-11-03T21:30:15.505Z,10.40
2022-11-03T21:32:44.127Z,10.30
2022-11-03T21:35:16.604Z,10.30
2022-11-03T21:37:44.637Z,10.30
2022-11-03T21:40:14.254Z,10.30
2022-11-03T21:43:00.137Z,10.30
2022-11-03T21:45:28.934Z,10.30
2022-11-03T21:48:15.126Z,10.30
2022-11-03T21:50:43.787Z,10.30
2022-11-03T21:53:12.618Z,10.30
2022-11-03T21:55:42.371Z,10.30
2022-11-03T21:58:10.761Z,10.30
